sensor_id;sensor_type;location;lat;lon;timestamp;pressure;altitude;pressure_sealevel;temperature;humidity
77118;BME280;66072;50.238;19.228;2023-02-21T00:02:05;97900.42;;;9.22;68.40
77118;BME280;66072;50.238;19.228;2023-02-21T00:04:33;97889.56;;;9.21;68.39
77118;BME280;66072;50.238;19.228;2023-02-21T00:07:01;97892.95;;;9.18;68.80
77118;BME280;66072;50.238;19.228;2023-02-21T00:09:29;97883.98;;;9.13;68.93
77118;BME280;66072;50.238;19.228;2023-02-21T00:11:57;97883.48;;;9.09;68.74
77118;BME280;66072;50.238;19.228;2023-02-21T00:14:24;97879.41;;;9.12;68.42
77118;BME280;66072;50.238;19.228;2023-02-21T00:16:52;97887.77;;;9.12;68.65
77118;BME280;66072;50.238;19.228;2023-02-21T00:19:19;97879.98;;;9.11;68.61
77118;BME280;66072;50.238;19.228;2023-02-21T00:21:47;97887.18;;;9.10;68.73
77118;BME280;66072;50.238;19.228;2023-02-21T00:24:16;97883.59;;;9.10;68.21
77118;BME280;66072;50.238;19.228;2023-02-21T00:26:44;97886.94;;;9.11;68.05
77118;BME280;66072;50.238;19.228;2023-02-21T00:29:12;97884.77;;;9.10;68.13
77118;BME280;66072;50.238;19.228;2023-02-21T00:31:39;97875.08;;;9.10;67.84
77118;BME280;66072;50.238;19.228;2023-02-21T00:34:07;97870.61;;;9.17;67.35
77118;BME280;66072;50.238;19.228;2023-02-21T00:36:35;97878.44;;;9.18;67.69
77118;BME280;66072;50.238;19.228;2023-02-21T00:39:02;97883.48;;;9.16;68.32
77118;BME280;66072;50.238;19.228;2023-02-21T00:41:30;97869.20;;;9.14;68.65
77118;BME280;66072;50.238;19.228;2023-02-21T00:43:57;97872.52;;;9.07;69.18
77118;BME280;66072;50.238;19.228;2023-02-21T00:46:25;97876.88;;;9.01;69.63
77118;BME280;66072;50.238;19.228;2023-02-21T00:48:52;97869.42;;;8.97;70.23
77118;BME280;66072;50.238;19.228;2023-02-21T00:51:20;97869.35;;;8.91;70.45
77118;BME280;66072;50.238;19.228;2023-02-21T00:53:48;97871.96;;;8.87;70.81
77118;BME280;66072;50.238;19.228;2023-02-21T00:56:15;97871.58;;;8.81;71.30
77118;BME280;66072;50.238;19.228;2023-02-21T00:58:43;97866.23;;;8.75;72.03
77118;BME280;66072;50.238;19.228;2023-02-21T01:01:11;97862.80;;;8.69;72.35
77118;BME280;66072;50.238;19.228;2023-02-21T01:03:39;97863.05;;;8.59;73.07
77118;BME280;66072;50.238;19.228;2023-02-21T01:06:10;97862.72;;;8.56;73.49
77118;BME280;66072;50.238;19.228;2023-02-21T01:08:43;97859.11;;;8.49;73.71
77118;BME280;66072;50.238;19.228;2023-02-21T01:11:15;97855.17;;;8.46;73.96
77118;BME280;66072;50.238;19.228;2023-02-21T01:13:43;97856.89;;;8.43;74.08
77118;BME280;66072;50.238;19.228;2023-02-21T01:16:11;97857.96;;;8.45;73.97
77118;BME280;66072;50.238;19.228;2023-02-21T01:18:39;97853.92;;;8.44;74.11
77118;BME280;66072;50.238;19.228;2023-02-21T01:21:14;97853.27;;;8.44;73.94
77118;BME280;66072;50.238;19.228;2023-02-21T01:23:43;97851.20;;;8.44;74.11
77118;BME280;66072;50.238;19.228;2023-02-21T01:26:10;97852.16;;;8.38;74.37
77118;BME280;66072;50.238;19.228;2023-02-21T01:28:38;97851.17;;;8.38;74.68
77118;BME280;66072;50.238;19.228;2023-02-21T01:31:06;97847.84;;;8.36;74.91
77118;BME280;66072;50.238;19.228;2023-02-21T01:33:40;97850.75;;;8.35;75.09
77118;BME280;66072;50.238;19.228;2023-02-21T01:36:08;97847.38;;;8.34;75.37
77118;BME280;66072;50.238;19.228;2023-02-21T01:38:36;97844.96;;;8.35;75.62
77118;BME280;66072;50.238;19.228;2023-02-21T01:41:03;97841.09;;;8.33;75.80
77118;BME280;66072;50.238;19.228;2023-02-21T01:43:31;97834.02;;;8.32;76.13
77118;BME280;66072;50.238;19.228;2023-02-21T01:45:59;97837.63;;;8.31;76.41
77118;BME280;66072;50.238;19.228;2023-02-21T01:48:28;97836.77;;;8.28;76.69
77118;BME280;66072;50.238;19.228;2023-02-21T01:50:57;97821.96;;;8.24;77.24
77118;BME280;66072;50.238;19.228;2023-02-21T01:53:26;97833.65;;;8.22;77.66
77118;BME280;66072;50.238;19.228;2023-02-21T01:55:55;97826.14;;;8.19;77.87
77118;BME280;66072;50.238;19.228;2023-02-21T01:58:25;97819.20;;;8.18;78.27
77118;BME280;66072;50.238;19.228;2023-02-21T02:00:53;97836.84;;;8.12;79.04
77118;BME280;66072;50.238;19.228;2023-02-21T02:03:20;97823.12;;;8.06;79.76
77118;BME280;66072;50.238;19.228;2023-02-21T02:05:54;97826.73;;;8.02;80.27
77118;BME280;66072;50.238;19.228;2023-02-21T02:08:27;97824.03;;;7.98;80.66
77118;BME280;66072;50.238;19.228;2023-02-21T02:11:08;97825.61;;;7.93;80.90
77118;BME280;66072;50.238;19.228;2023-02-21T02:17:04;97827.27;;;7.80;82.55
77118;BME280;66072;50.238;19.228;2023-02-21T02:27:54;97817.55;;;7.49;85.13
77118;BME280;66072;50.238;19.228;2023-02-21T02:39:39;97820.41;;;7.31;87.53
77118;BME280;66072;50.238;19.228;2023-02-21T02:42:30;97817.39;;;7.26;87.98
77118;BME280;66072;50.238;19.228;2023-02-21T02:45:05;97820.50;;;7.21;88.59
77118;BME280;66072;50.238;19.228;2023-02-21T02:47:36;97818.79;;;7.14;89.31
77118;BME280;66072;50.238;19.228;2023-02-21T02:50:06;97819.98;;;7.10;89.71
77118;BME280;66072;50.238;19.228;2023-02-21T02:52:36;97819.77;;;7.03;90.17
77118;BME280;66072;50.238;19.228;2023-02-21T02:55:29;97818.80;;;7.02;90.46
77118;BME280;66072;50.238;19.228;2023-02-21T02:57:58;97823.13;;;6.99;90.98
77118;BME280;66072;50.238;19.228;2023-02-21T03:00:26;97828.33;;;6.97;91.14
77118;BME280;66072;50.238;19.228;2023-02-21T03:06:05;97843.54;;;6.91;91.90
77118;BME280;66072;50.238;19.228;2023-02-21T03:11:18;97836.62;;;6.86;92.69
77118;BME280;66072;50.238;19.228;2023-02-21T03:13:52;97833.81;;;6.84;92.95
77118;BME280;66072;50.238;19.228;2023-02-21T03:16:34;97834.60;;;6.81;93.04
77118;BME280;66072;50.238;19.228;2023-02-21T03:19:06;97836.70;;;6.84;92.83
77118;BME280;66072;50.238;19.228;2023-02-21T03:21:45;97832.38;;;6.82;93.08
77118;BME280;66072;50.238;19.228;2023-02-21T03:24:16;97829.36;;;6.81;93.18
77118;BME280;66072;50.238;19.228;2023-02-21T03:26:48;97814.46;;;6.79;93.37
77118;BME280;66072;50.238;19.228;2023-02-21T03:29:18;97821.52;;;6.81;93.34
77118;BME280;66072;50.238;19.228;2023-02-21T03:34:38;97824.24;;;6.81;93.36
77118;BME280;66072;50.238;19.228;2023-02-21T03:37:08;97823.59;;;6.80;93.46
77118;BME280;66072;50.238;19.228;2023-02-21T03:39:37;97827.15;;;6.81;93.48
77118;BME280;66072;50.238;19.228;2023-02-21T03:42:05;97833.80;;;6.80;93.49
77118;BME280;66072;50.238;19.228;2023-02-21T03:44:33;97826.46;;;6.81;93.45
77118;BME280;66072;50.238;19.228;2023-02-21T03:47:00;97828.02;;;6.80;93.69
77118;BME280;66072;50.238;19.228;2023-02-21T03:49:28;97826.09;;;6.78;93.82
77118;BME280;66072;50.238;19.228;2023-02-21T03:51:56;97823.73;;;6.77;94.11
77118;BME280;66072;50.238;19.228;2023-02-21T03:54:23;97821.39;;;6.76;94.35
77118;BME280;66072;50.238;19.228;2023-02-21T03:56:51;97826.16;;;6.76;94.37
77118;BME280;66072;50.238;19.228;2023-02-21T03:59:18;97820.15;;;6.73;94.68
77118;BME280;66072;50.238;19.228;2023-02-21T04:01:46;97834.92;;;6.73;94.60
77118;BME280;66072;50.238;19.228;2023-02-21T04:04:14;97829.05;;;6.72;94.69
77118;BME280;66072;50.238;19.228;2023-02-21T04:06:41;97832.14;;;6.71;94.92
77118;BME280;66072;50.238;19.228;2023-02-21T04:09:09;97827.58;;;6.70;94.95
77118;BME280;66072;50.238;19.228;2023-02-21T04:11:36;97829.15;;;6.69;95.16
77118;BME280;66072;50.238;19.228;2023-02-21T04:14:04;97831.87;;;6.69;95.12
77118;BME280;66072;50.238;19.228;2023-02-21T04:16:32;97826.66;;;6.68;95.31
77118;BME280;66072;50.238;19.228;2023-02-21T04:18:59;97824.10;;;6.68;95.19
77118;BME280;66072;50.238;19.228;2023-02-21T04:21:27;97830.18;;;6.69;95.19
77118;BME280;66072;50.238;19.228;2023-02-21T04:23:55;97831.44;;;6.72;95.13
77118;BME280;66072;50.238;19.228;2023-02-21T04:26:22;97833.88;;;6.70;95.16
77118;BME280;66072;50.238;19.228;2023-02-21T04:28:51;97827.36;;;6.67;95.16
77118;BME280;66072;50.238;19.228;2023-02-21T04:31:19;97825.50;;;6.67;95.26
77118;BME280;66072;50.238;19.228;2023-02-21T04:33:47;97831.23;;;6.68;95.08
77118;BME280;66072;50.238;19.228;2023-02-21T04:36:14;97828.21;;;6.67;95.22
77118;BME280;66072;50.238;19.228;2023-02-21T04:38:42;97838.12;;;6.66;95.29
77118;BME280;66072;50.238;19.228;2023-02-21T04:41:10;97836.52;;;6.64;95.36
77118;BME280;66072;50.238;19.228;2023-02-21T04:43:41;97837.56;;;6.63;95.35
77118;BME280;66072;50.238;19.228;2023-02-21T04:46:09;97841.95;;;6.64;95.29
77118;BME280;66072;50.238;19.228;2023-02-21T04:48:37;97841.95;;;6.64;95.22
77118;BME280;66072;50.238;19.228;2023-02-21T04:51:05;97835.84;;;6.64;95.15
77118;BME280;66072;50.238;19.228;2023-02-21T04:53:42;97834.65;;;6.64;95.21
77118;BME280;66072;50.238;19.228;2023-02-21T04:56:10;97835.80;;;6.65;95.10
77118;BME280;66072;50.238;19.228;2023-02-21T04:58:38;97841.15;;;6.63;95.05
77118;BME280;66072;50.238;19.228;2023-02-21T05:01:15;97834.66;;;6.64;94.96
77118;BME280;66072;50.238;19.228;2023-02-21T05:03:44;97841.52;;;6.62;95.12
77118;BME280;66072;50.238;19.228;2023-02-21T05:06:23;97835.38;;;6.62;94.99
77118;BME280;66072;50.238;19.228;2023-02-21T05:08:51;97834.33;;;6.63;94.98
77118;BME280;66072;50.238;19.228;2023-02-21T05:11:20;97840.64;;;6.63;95.06
77118;BME280;66072;50.238;19.228;2023-02-21T05:13:48;97840.41;;;6.60;95.21
77118;BME280;66072;50.238;19.228;2023-02-21T05:16:16;97831.62;;;6.59;95.31
77118;BME280;66072;50.238;19.228;2023-02-21T05:18:46;97842.07;;;6.61;95.27
77118;BME280;66072;50.238;19.228;2023-02-21T05:21:15;97845.41;;;6.58;95.59
77118;BME280;66072;50.238;19.228;2023-02-21T05:23:43;97838.19;;;6.56;95.80
77118;BME280;66072;50.238;19.228;2023-02-21T05:26:12;97836.56;;;6.55;95.85
77118;BME280;66072;50.238;19.228;2023-02-21T05:28:40;97837.46;;;6.53;95.96
77118;BME280;66072;50.238;19.228;2023-02-21T05:31:07;97835.84;;;6.55;95.79
77118;BME280;66072;50.238;19.228;2023-02-21T05:33:35;97829.20;;;6.56;95.79
77118;BME280;66072;50.238;19.228;2023-02-21T05:36:03;97828.30;;;6.57;95.72
77118;BME280;66072;50.238;19.228;2023-02-21T05:38:31;97833.58;;;6.57;95.80
77118;BME280;66072;50.238;19.228;2023-02-21T05:40:58;97821.71;;;6.56;95.88
77118;BME280;66072;50.238;19.228;2023-02-21T05:43:26;97826.14;;;6.56;95.82
77118;BME280;66072;50.238;19.228;2023-02-21T05:45:55;97828.70;;;6.56;95.80
77118;BME280;66072;50.238;19.228;2023-02-21T05:48:23;97825.77;;;6.57;95.67
77118;BME280;66072;50.238;19.228;2023-02-21T05:50:50;97825.23;;;6.57;95.62
77118;BME280;66072;50.238;19.228;2023-02-21T05:53:18;97829.23;;;6.59;95.48
77118;BME280;66072;50.238;19.228;2023-02-21T05:55:45;97828.21;;;6.59;95.36
77118;BME280;66072;50.238;19.228;2023-02-21T05:58:13;97832.59;;;6.60;95.28
77118;BME280;66072;50.238;19.228;2023-02-21T06:00:41;97825.40;;;6.61;95.23
77118;BME280;66072;50.238;19.228;2023-02-21T06:03:08;97825.00;;;6.63;95.00
77118;BME280;66072;50.238;19.228;2023-02-21T06:05:36;97827.23;;;6.67;94.75
77118;BME280;66072;50.238;19.228;2023-02-21T06:08:04;97828.86;;;6.68;94.67
77118;BME280;66072;50.238;19.228;2023-02-21T06:10:31;97830.71;;;6.68;94.65
77118;BME280;66072;50.238;19.228;2023-02-21T06:12:59;97829.36;;;6.69;94.65
77118;BME280;66072;50.238;19.228;2023-02-21T06:15:27;97829.82;;;6.70;94.66
77118;BME280;66072;50.238;19.228;2023-02-21T06:17:54;97838.58;;;6.71;94.52
77118;BME280;66072;50.238;19.228;2023-02-21T06:20:22;97839.20;;;6.73;94.44
77118;BME280;66072;50.238;19.228;2023-02-21T06:22:49;97843.35;;;6.75;94.23
77118;BME280;66072;50.238;19.228;2023-02-21T06:25:17;97843.11;;;6.77;94.12
77118;BME280;66072;50.238;19.228;2023-02-21T06:27:45;97851.72;;;6.79;93.99
77118;BME280;66072;50.238;19.228;2023-02-21T06:30:13;97845.89;;;6.80;93.71
77118;BME280;66072;50.238;19.228;2023-02-21T06:32:41;97850.45;;;6.84;93.58
77118;BME280;66072;50.238;19.228;2023-02-21T06:35:09;97861.88;;;6.87;93.84
77118;BME280;66072;50.238;19.228;2023-02-21T06:37:37;97864.98;;;6.87;93.98
77118;BME280;66072;50.238;19.228;2023-02-21T06:40:05;97866.67;;;6.87;93.90
77118;BME280;66072;50.238;19.228;2023-02-21T06:42:33;97863.58;;;6.88;93.76
77118;BME280;66072;50.238;19.228;2023-02-21T06:45:00;97872.58;;;6.88;93.67
77118;BME280;66072;50.238;19.228;2023-02-21T06:47:28;97868.89;;;6.90;93.59
77118;BME280;66072;50.238;19.228;2023-02-21T06:49:55;97874.06;;;6.93;93.44
77118;BME280;66072;50.238;19.228;2023-02-21T06:52:23;97877.27;;;6.94;93.42
77118;BME280;66072;50.238;19.228;2023-02-21T06:54:51;97878.10;;;6.94;93.60
77118;BME280;66072;50.238;19.228;2023-02-21T06:57:18;97868.65;;;6.96;93.33
77118;BME280;66072;50.238;19.228;2023-02-21T06:59:46;97871.08;;;6.99;93.22
77118;BME280;66072;50.238;19.228;2023-02-21T07:02:16;97886.20;;;6.99;93.16
77118;BME280;66072;50.238;19.228;2023-02-21T07:04:44;97891.38;;;6.98;93.34
77118;BME280;66072;50.238;19.228;2023-02-21T07:07:12;97882.38;;;6.97;93.37
77118;BME280;66072;50.238;19.228;2023-02-21T07:09:40;97883.20;;;6.98;93.21
77118;BME280;66072;50.238;19.228;2023-02-21T07:12:08;97884.84;;;6.99;93.44
77118;BME280;66072;50.238;19.228;2023-02-21T07:14:36;97878.70;;;7.00;93.27
77118;BME280;66072;50.238;19.228;2023-02-21T07:17:03;97884.41;;;7.02;93.36
77118;BME280;66072;50.238;19.228;2023-02-21T07:19:31;97884.70;;;7.07;93.40
77118;BME280;66072;50.238;19.228;2023-02-21T07:21:58;97883.63;;;7.13;92.81
77118;BME280;66072;50.238;19.228;2023-02-21T07:24:26;97886.36;;;7.12;92.87
77118;BME280;66072;50.238;19.228;2023-02-21T07:26:54;97884.36;;;7.11;92.64
77118;BME280;66072;50.238;19.228;2023-02-21T07:29:22;97889.35;;;7.14;92.77
77118;BME280;66072;50.238;19.228;2023-02-21T07:31:50;97894.19;;;7.16;92.52
77118;BME280;66072;50.238;19.228;2023-02-21T07:34:18;97890.45;;;7.16;92.57
77118;BME280;66072;50.238;19.228;2023-02-21T07:36:45;97896.89;;;7.16;92.54
77118;BME280;66072;50.238;19.228;2023-02-21T07:39:13;97894.71;;;7.24;92.31
77118;BME280;66072;50.238;19.228;2023-02-21T07:41:41;97900.81;;;7.24;92.37
77118;BME280;66072;50.238;19.228;2023-02-21T07:44:09;97899.44;;;7.29;91.97
77118;BME280;66072;50.238;19.228;2023-02-21T07:46:37;97889.09;;;7.36;91.29
77118;BME280;66072;50.238;19.228;2023-02-21T07:49:04;97894.00;;;7.41;91.40
77118;BME280;66072;50.238;19.228;2023-02-21T07:51:32;97897.23;;;7.45;91.19
77118;BME280;66072;50.238;19.228;2023-02-21T07:53:59;97895.68;;;7.45;91.04
77118;BME280;66072;50.238;19.228;2023-02-21T07:56:27;97890.01;;;7.50;91.13
77118;BME280;66072;50.238;19.228;2023-02-21T07:58:55;97887.02;;;7.60;90.76
77118;BME280;66072;50.238;19.228;2023-02-21T08:01:24;97882.94;;;7.68;89.77
77118;BME280;66072;50.238;19.228;2023-02-21T08:03:52;97880.08;;;7.75;89.50
77118;BME280;66072;50.238;19.228;2023-02-21T08:06:20;97889.64;;;7.82;89.21
77118;BME280;66072;50.238;19.228;2023-02-21T08:08:48;97889.05;;;7.91;88.64
77118;BME280;66072;50.238;19.228;2023-02-21T08:11:15;97892.04;;;7.97;88.23
77118;BME280;66072;50.238;19.228;2023-02-21T08:13:43;97888.83;;;8.07;87.94
77118;BME280;66072;50.238;19.228;2023-02-21T08:16:11;97893.02;;;8.17;87.69
77118;BME280;66072;50.238;19.228;2023-02-21T08:18:39;97902.27;;;8.22;87.52
77118;BME280;66072;50.238;19.228;2023-02-21T08:21:08;97891.84;;;8.24;87.06
77118;BME280;66072;50.238;19.228;2023-02-21T08:23:36;97893.39;;;8.30;86.86
77118;BME280;66072;50.238;19.228;2023-02-21T08:26:04;97899.19;;;8.30;86.58
77118;BME280;66072;50.238;19.228;2023-02-21T08:28:32;97903.55;;;8.28;86.65
77118;BME280;66072;50.238;19.228;2023-02-21T08:31:00;97899.57;;;8.29;86.67
77118;BME280;66072;50.238;19.228;2023-02-21T08:33:28;97909.64;;;8.33;86.46
77118;BME280;66072;50.238;19.228;2023-02-21T08:35:58;97906.16;;;8.35;86.11
77118;BME280;66072;50.238;19.228;2023-02-21T08:38:25;97905.83;;;8.30;86.38
77118;BME280;66072;50.238;19.228;2023-02-21T08:40:53;97917.10;;;8.22;86.51
77118;BME280;66072;50.238;19.228;2023-02-21T08:43:24;97915.20;;;8.19;86.86
77118;BME280;66072;50.238;19.228;2023-02-21T08:45:51;97920.20;;;8.18;86.93
77118;BME280;66072;50.238;19.228;2023-02-21T08:48:19;97921.84;;;8.16;86.65
77118;BME280;66072;50.238;19.228;2023-02-21T08:50:47;97920.57;;;8.14;86.87
77118;BME280;66072;50.238;19.228;2023-02-21T08:53:14;97931.63;;;8.10;87.33
77118;BME280;66072;50.238;19.228;2023-02-21T08:55:43;97926.83;;;8.07;87.72
77118;BME280;66072;50.238;19.228;2023-02-21T08:58:11;97934.83;;;8.07;87.46
77118;BME280;66072;50.238;19.228;2023-02-21T09:00:40;97932.30;;;8.18;86.54
77118;BME280;66072;50.238;19.228;2023-02-21T09:03:07;97936.11;;;8.27;86.40
77118;BME280;66072;50.238;19.228;2023-02-21T09:05:35;97929.80;;;8.35;86.06
77118;BME280;66072;50.238;19.228;2023-02-21T09:08:03;97934.00;;;8.37;85.71
77118;BME280;66072;50.238;19.228;2023-02-21T09:10:32;97930.54;;;8.34;86.40
77118;BME280;66072;50.238;19.228;2023-02-21T09:13:00;97935.60;;;8.31;87.26
77118;BME280;66072;50.238;19.228;2023-02-21T09:15:28;97943.77;;;8.28;87.87
77118;BME280;66072;50.238;19.228;2023-02-21T09:17:56;97946.11;;;8.25;87.92
77118;BME280;66072;50.238;19.228;2023-02-21T09:20:25;97937.86;;;8.27;87.87
77118;BME280;66072;50.238;19.228;2023-02-21T09:22:53;97946.63;;;8.25;87.83
77118;BME280;66072;50.238;19.228;2023-02-21T09:25:22;97953.55;;;8.23;87.12
77118;BME280;66072;50.238;19.228;2023-02-21T09:27:52;97961.11;;;8.21;87.24
77118;BME280;66072;50.238;19.228;2023-02-21T09:30:23;97964.46;;;8.26;87.61
77118;BME280;66072;50.238;19.228;2023-02-21T09:32:51;97957.34;;;8.44;86.40
77118;BME280;66072;50.238;19.228;2023-02-21T09:35:21;97962.73;;;8.68;86.21
77118;BME280;66072;50.238;19.228;2023-02-21T09:37:49;97956.12;;;8.89;84.20
77118;BME280;66072;50.238;19.228;2023-02-21T09:40:26;97963.33;;;8.98;83.61
77118;BME280;66072;50.238;19.228;2023-02-21T09:43:00;97963.14;;;8.99;83.00
77118;BME280;66072;50.238;19.228;2023-02-21T09:45:33;97967.91;;;9.02;82.70
77118;BME280;66072;50.238;19.228;2023-02-21T09:48:15;97973.88;;;9.09;82.15
77118;BME280;66072;50.238;19.228;2023-02-21T09:50:49;97972.86;;;9.09;82.20
77118;BME280;66072;50.238;19.228;2023-02-21T09:53:24;97980.11;;;9.11;81.95
77118;BME280;66072;50.238;19.228;2023-02-21T09:56:03;97988.13;;;9.32;82.00
77118;BME280;66072;50.238;19.228;2023-02-21T09:58:32;97986.55;;;9.54;81.17
77118;BME280;66072;50.238;19.228;2023-02-21T10:01:07;97975.41;;;9.71;79.31
77118;BME280;66072;50.238;19.228;2023-02-21T10:03:44;97974.13;;;9.93;77.99
77118;BME280;66072;50.238;19.228;2023-02-21T10:08:58;97965.03;;;9.94;78.63
77118;BME280;66072;50.238;19.228;2023-02-21T10:12:07;97969.66;;;9.87;78.70
77118;BME280;66072;50.238;19.228;2023-02-21T10:17:33;97969.47;;;9.71;79.87
77118;BME280;66072;50.238;19.228;2023-02-21T10:20:10;97973.18;;;9.72;80.30
77118;BME280;66072;50.238;19.228;2023-02-21T10:22:42;97970.84;;;9.67;80.85
77118;BME280;66072;50.238;19.228;2023-02-21T10:25:21;97970.69;;;9.64;81.46
77118;BME280;66072;50.238;19.228;2023-02-21T10:27:51;97967.59;;;9.67;81.50
77118;BME280;66072;50.238;19.228;2023-02-21T10:30:39;97964.52;;;9.74;81.26
77118;BME280;66072;50.238;19.228;2023-02-21T10:33:09;97970.13;;;9.68;80.98
77118;BME280;66072;50.238;19.228;2023-02-21T10:35:37;97962.15;;;9.63;80.25
77118;BME280;66072;50.238;19.228;2023-02-21T10:38:10;97964.91;;;9.73;80.09
77118;BME280;66072;50.238;19.228;2023-02-21T10:40:56;97953.56;;;9.91;79.41
77118;BME280;66072;50.238;19.228;2023-02-21T10:43:34;97966.22;;;9.91;78.21
77118;BME280;66072;50.238;19.228;2023-02-21T10:49:03;97977.39;;;10.13;78.05
77118;BME280;66072;50.238;19.228;2023-02-21T10:51:39;97963.61;;;10.05;77.16
77118;BME280;66072;50.238;19.228;2023-02-21T10:56:49;97965.36;;;9.84;78.75
77118;BME280;66072;50.238;19.228;2023-02-21T11:01:48;97983.59;;;9.51;80.74
77118;BME280;66072;50.238;19.228;2023-02-21T11:06:50;97997.00;;;9.11;83.99
77118;BME280;66072;50.238;19.228;2023-02-21T11:12:23;98000.51;;;9.44;84.07
77118;BME280;66072;50.238;19.228;2023-02-21T11:17:19;97993.54;;;11.24;77.06
77118;BME280;66072;50.238;19.228;2023-02-21T11:22:18;97988.31;;;10.92;75.94
77118;BME280;66072;50.238;19.228;2023-02-21T11:27:19;97982.01;;;10.36;77.88
77118;BME280;66072;50.238;19.228;2023-02-21T11:29:48;97997.54;;;10.30;77.53
77118;BME280;66072;50.238;19.228;2023-02-21T11:35:00;97989.61;;;9.85;79.25
77118;BME280;66072;50.238;19.228;2023-02-21T11:37:28;98001.48;;;9.49;81.07
77118;BME280;66072;50.238;19.228;2023-02-21T11:39:56;97995.15;;;9.21;82.13
77118;BME280;66072;50.238;19.228;2023-02-21T11:42:30;98007.69;;;8.87;83.37
77118;BME280;66072;50.238;19.228;2023-02-21T11:45:26;98007.77;;;8.56;85.50
77118;BME280;66072;50.238;19.228;2023-02-21T11:48:01;98008.66;;;8.28;87.27
77118;BME280;66072;50.238;19.228;2023-02-21T11:50:33;98015.11;;;8.09;88.78
77118;BME280;66072;50.238;19.228;2023-02-21T11:53:22;98025.42;;;7.92;90.31
77118;BME280;66072;50.238;19.228;2023-02-21T11:56:01;98022.70;;;7.80;91.27
77118;BME280;66072;50.238;19.228;2023-02-21T12:01:19;98013.83;;;7.72;91.84
77118;BME280;66072;50.238;19.228;2023-02-21T12:09:47;98017.36;;;9.17;85.61
77118;BME280;66072;50.238;19.228;2023-02-21T12:15:23;98003.39;;;10.29;81.01
77118;BME280;66072;50.238;19.228;2023-02-21T12:18:14;98012.30;;;10.42;80.69
77118;BME280;66072;50.238;19.228;2023-02-21T12:38:30;97998.45;;;11.70;70.47
77118;BME280;66072;50.238;19.228;2023-02-21T12:44:17;97999.96;;;11.26;70.20
77118;BME280;66072;50.238;19.228;2023-02-21T12:46:59;97990.39;;;10.70;70.70
77118;BME280;66072;50.238;19.228;2023-02-21T12:49:50;97993.81;;;10.32;70.27
77118;BME280;66072;50.238;19.228;2023-02-21T12:52:31;97997.81;;;10.11;71.26
77118;BME280;66072;50.238;19.228;2023-02-21T12:55:13;98001.60;;;9.87;73.03
77118;BME280;66072;50.238;19.228;2023-02-21T12:58:16;97987.50;;;9.62;72.43
77118;BME280;66072;50.238;19.228;2023-02-21T13:00:51;97997.67;;;9.50;72.93
77118;BME280;66072;50.238;19.228;2023-02-21T13:03:35;97996.98;;;9.36;73.26
77118;BME280;66072;50.238;19.228;2023-02-21T13:06:45;97997.78;;;9.34;73.67
77118;BME280;66072;50.238;19.228;2023-02-21T13:12:04;97994.95;;;9.39;74.44
77118;BME280;66072;50.238;19.228;2023-02-21T13:14:38;97995.60;;;9.40;74.93
77118;BME280;66072;50.238;19.228;2023-02-21T13:17:12;97996.17;;;9.42;76.00
77118;BME280;66072;50.238;19.228;2023-02-21T13:20:07;97995.02;;;9.41;76.54
77118;BME280;66072;50.238;19.228;2023-02-21T13:25:47;98001.44;;;9.29;77.26
77118;BME280;66072;50.238;19.228;2023-02-21T13:28:20;98003.84;;;9.53;75.65
77118;BME280;66072;50.238;19.228;2023-02-21T13:31:00;97994.45;;;9.93;72.68
77118;BME280;66072;50.238;19.228;2023-02-21T13:33:41;97995.96;;;11.00;69.38
77118;BME280;66072;50.238;19.228;2023-02-21T13:36:26;98000.69;;;11.96;65.42
77118;BME280;66072;50.238;19.228;2023-02-21T13:38:57;97997.88;;;11.83;64.17
77118;BME280;66072;50.238;19.228;2023-02-21T13:41:29;97982.14;;;12.52;62.19
77118;BME280;66072;50.238;19.228;2023-02-21T13:44:04;97992.51;;;13.77;58.62
77118;BME280;66072;50.238;19.228;2023-02-21T13:57:37;98005.30;;;13.10;59.73
77118;BME280;66072;50.238;19.228;2023-02-21T14:11:20;98001.73;;;12.16;63.74
77118;BME280;66072;50.238;19.228;2023-02-21T14:13:57;98015.38;;;11.91;64.89
77118;BME280;66072;50.238;19.228;2023-02-21T14:16:36;98016.10;;;11.55;65.81
77118;BME280;66072;50.238;19.228;2023-02-21T14:19:42;98007.23;;;11.06;67.09
77118;BME280;66072;50.238;19.228;2023-02-21T14:22:29;98006.84;;;10.73;68.47
77118;BME280;66072;50.238;19.228;2023-02-21T14:25:07;98011.80;;;10.70;68.99
77118;BME280;66072;50.238;19.228;2023-02-21T14:27:42;98013.42;;;10.84;69.08
77118;BME280;66072;50.238;19.228;2023-02-21T14:32:42;98020.62;;;10.74;70.08
77118;BME280;66072;50.238;19.228;2023-02-21T14:35:21;98019.08;;;10.55;70.75
77118;BME280;66072;50.238;19.228;2023-02-21T14:37:58;98024.51;;;10.46;71.26
77118;BME280;66072;50.238;19.228;2023-02-21T14:43:28;98025.36;;;10.97;67.65
77118;BME280;66072;50.238;19.228;2023-02-21T14:46:09;98028.64;;;11.51;66.20
77118;BME280;66072;50.238;19.228;2023-02-21T14:56:47;98032.41;;;14.46;54.38
77118;BME280;66072;50.238;19.228;2023-02-21T15:05:11;98040.58;;;14.39;55.25
77118;BME280;66072;50.238;19.228;2023-02-21T15:10:23;98045.45;;;13.13;60.08
77118;BME280;66072;50.238;19.228;2023-02-21T15:12:51;98048.61;;;12.52;62.34
77118;BME280;66072;50.238;19.228;2023-02-21T15:18:03;98051.33;;;11.47;65.85
77118;BME280;66072;50.238;19.228;2023-02-21T15:20:34;98048.09;;;11.10;66.37
77118;BME280;66072;50.238;19.228;2023-02-21T15:23:17;98061.78;;;10.89;68.20
77118;BME280;66072;50.238;19.228;2023-02-21T15:25:55;98059.72;;;10.72;69.02
77118;BME280;66072;50.238;19.228;2023-02-21T15:28:24;98056.40;;;10.51;69.55
77118;BME280;66072;50.238;19.228;2023-02-21T15:30:58;98057.98;;;10.21;69.58
77118;BME280;66072;50.238;19.228;2023-02-21T15:33:31;98069.79;;;10.03;70.04
77118;BME280;66072;50.238;19.228;2023-02-21T15:36:02;98069.85;;;9.88;71.22
77118;BME280;66072;50.238;19.228;2023-02-21T15:38:39;98070.44;;;9.77;71.19
77118;BME280;66072;50.238;19.228;2023-02-21T15:44:19;98065.70;;;9.51;72.30
77118;BME280;66072;50.238;19.228;2023-02-21T15:46:54;98066.89;;;9.48;73.02
77118;BME280;66072;50.238;19.228;2023-02-21T15:49:29;98065.52;;;9.38;73.20